Mc Indoe Falls, Vermont
Current Conditions -  °F | °C
As of 12:35 AM on Saturday 27 Dec 2014 (Local Time) from KCDA Reporting Station
Overcast Overcast  
Wind Chill: 35°   Ceiling: 2600
Heat Index: 35°   Visibility: 10mi
Dew Point: 28°   Wind: 0mph
Humidity: 74%   Direction: NA
Pressure: 30.07"   Gusts: NA
Location:  44.2588°N, 72.0585°W
Report Text: KCDA 270535Z AUTO 00000KT 10SM OVC026 02/M02 A3007 RMK AO2 T00171025
Loading
Personal Weather Stations






























Interactive Weather Map New forecast layout! Learn more

10-Day Weather Forecast

Advertisements
Track Severe Weather on mobile